createdAt,value
2023-01-19T00:03:35.530Z,33.70
2023-01-19T00:08:37.627Z,29.55
2023-01-19T00:13:40.245Z,25.52
2023-01-19T00:18:41.927Z,28.42
2023-01-19T00:23:47.244Z,30.30
2023-01-19T00:28:50.205Z,32.03
2023-01-19T00:33:52.775Z,33.78
2023-01-19T00:38:54.700Z,35.05
2023-01-19T00:43:56.436Z,33.33
2023-01-19T00:48:58.107Z,31.10
2023-01-19T00:54:04.774Z,35.58
2023-01-19T00:59:06.632Z,39.08
2023-01-19T01:04:08.413Z,36.33
2023-01-19T01:09:13.067Z,39.60
2023-01-19T01:14:15.013Z,44.70
2023-01-19T01:19:17.060Z,42.95
2023-01-19T01:24:18.921Z,36.42
2023-01-19T01:29:20.643Z,41.45
2023-01-19T01:34:22.325Z,38.88
2023-01-19T01:39:24.607Z,38.28
2023-01-19T01:44:49.902Z,42.95
2023-01-19T01:50:04.876Z,44.35
2023-01-19T01:55:07.989Z,41.97
2023-01-19T02:00:11.250Z,36.42
2023-01-19T02:05:18.239Z,39.30
2023-01-19T02:10:38.834Z,38.85
2023-01-19T02:15:40.552Z,35.90
2023-01-19T02:20:50.640Z,32.53
2023-01-19T02:25:53.655Z,34.67
2023-01-19T02:30:55.991Z,38.85
2023-01-19T02:35:58.113Z,38.28
2023-01-19T02:41:02.990Z,38.92
2023-01-19T02:46:04.869Z,39.65
2023-01-19T02:51:21.280Z,41.70
2023-01-19T02:56:46.250Z,41.20
2023-01-19T03:01:56.898Z,36.08
2023-01-19T03:07:10.717Z,34.17
2023-01-19T03:12:22.264Z,40.23
2023-01-19T03:17:25.936Z,42.72
2023-01-19T03:22:29.552Z,42.50
2023-01-19T03:27:40.651Z,34.93
2023-01-19T03:32:51.843Z,32.22
2023-01-19T03:37:58.042Z,39.08
2023-01-19T03:43:01.048Z,39.25
2023-01-19T03:48:03.767Z,34.67
2023-01-19T03:53:09.026Z,33.42
2023-01-19T03:58:10.968Z,35.67
2023-01-19T04:03:15.516Z,39.13
2023-01-19T04:08:17.255Z,38.40
2023-01-19T04:13:18.968Z,36.45
2023-01-19T04:18:20.662Z,33.15
2023-01-19T04:23:22.393Z,35.45
2023-01-19T04:28:24.241Z,41.65
2023-01-19T04:33:27.880Z,46.58
2023-01-19T04:38:29.793Z,36.70
2023-01-19T04:43:31.572Z,41.53
2023-01-19T04:48:33.465Z,38.00
2023-01-19T04:53:35.548Z,36.28
2023-01-19T04:58:37.527Z,39.28
2023-01-19T05:03:40.214Z,41.00
2023-01-19T05:08:43.385Z,38.55
2023-01-19T05:13:46.283Z,36.05
2023-01-19T05:18:48.030Z,33.92
2023-01-19T05:23:49.730Z,33.38
2023-01-19T05:28:51.439Z,37.63
2023-01-19T05:33:53.192Z,32.22
2023-01-19T05:38:55.135Z,35.47
2023-01-19T05:43:57.300Z,39.53
2023-01-19T05:49:01.613Z,34.10
2023-01-19T05:54:04.382Z,38.80
2023-01-19T05:59:06.087Z,37.97
2023-01-19T06:04:07.825Z,39.05
2023-01-19T06:09:09.616Z,38.13
2023-01-19T06:14:11.681Z,38.67
2023-01-19T06:19:13.751Z,33.95
2023-01-19T06:24:19.164Z,40.53
2023-01-19T06:29:22.094Z,36.13
2023-01-19T06:34:28.746Z,37.00
2023-01-19T06:39:30.501Z,38.70
2023-01-19T06:44:32.216Z,35.70
2023-01-19T06:49:33.918Z,36.72
2023-01-19T06:54:35.665Z,36.22
2023-01-19T06:59:38.067Z,36.80
2023-01-19T07:04:39.815Z,37.65
2023-01-19T07:09:41.499Z,35.67
2023-01-19T07:14:43.367Z,34.80
2023-01-19T07:19:46.250Z,30.08
2023-01-19T07:24:47.965Z,31.98
2023-01-19T07:29:49.684Z,35.63
2023-01-19T07:34:51.436Z,38.08
2023-01-19T07:39:53.141Z,37.28
2023-01-19T07:44:54.853Z,31.23
2023-01-19T07:49:56.564Z,36.50
2023-01-19T07:54:59.198Z,33.28
2023-01-19T08:00:01.040Z,28.35
2023-01-19T08:05:02.873Z,26.08
2023-01-19T08:10:05.043Z,26.73
2023-01-19T08:15:07.693Z,26.05
2023-01-19T08:20:11.240Z,18.33
2023-01-19T08:25:13.098Z,17.00
2023-01-19T08:30:15.361Z,16.88
2023-01-19T08:35:17.212Z,15.48
2023-01-19T08:40:19.665Z,19.95
2023-01-19T08:45:21.522Z,15.95
2023-01-19T08:50:23.284Z,18.88
2023-01-19T08:55:25.631Z,20.30
2023-01-19T09:00:27.817Z,22.70
2023-01-19T09:05:35.712Z,20.73
2023-01-19T09:10:39.108Z,17.83
2023-01-19T09:15:42.086Z,20.48
2023-01-19T09:20:45.417Z,18.80
2023-01-19T09:25:48.259Z,25.08
2023-01-19T09:30:50.184Z,20.67
2023-01-19T09:35:52.484Z,20.00
2023-01-19T09:40:56.155Z,20.05
2023-01-19T09:46:04.000Z,18.53
2023-01-19T09:51:10.589Z,20.25
2023-01-19T09:56:15.128Z,19.42
2023-01-19T10:06:18.974Z,20.23
2023-01-19T10:11:52.686Z,19.58
2023-01-19T10:17:12.054Z,20.90
2023-01-19T10:22:25.600Z,18.50
2023-01-19T10:27:31.244Z,15.35
2023-01-19T10:32:36.681Z,17.45
2023-01-19T10:37:40.641Z,16.77
2023-01-19T10:42:42.732Z,14.88
2023-01-19T10:47:46.565Z,14.73
2023-01-19T10:52:51.822Z,15.52
2023-01-19T10:57:53.851Z,13.27
2023-01-19T11:02:55.788Z,15.30
2023-01-19T11:07:57.744Z,14.32
2023-01-19T11:13:07.270Z,12.70
2023-01-19T11:18:20.665Z,10.07
2023-01-19T11:23:34.633Z,7.55
2023-01-19T11:28:48.497Z,8.10
2023-01-19T11:33:52.582Z,10.33
2023-01-19T11:39:00.272Z,8.13
2023-01-19T11:44:32.631Z,9.23
2023-01-19T11:50:19.516Z,9.52
2023-01-19T11:56:03.021Z,10.88
2023-01-19T12:01:24.763Z,9.00
2023-01-19T12:06:39.364Z,8.98
2023-01-19T12:11:46.406Z,10.30
2023-01-19T12:16:53.148Z,11.90
2023-01-19T12:21:56.086Z,8.50
2023-01-19T12:27:00.902Z,9.25
2023-01-19T12:32:14.538Z,9.48
2023-01-19T12:37:30.864Z,12.88
2023-01-19T12:42:34.031Z,15.38
2023-01-19T12:47:37.033Z,12.65
2023-01-19T12:52:51.497Z,12.43
2023-01-19T12:58:14.549Z,11.77
2023-01-19T13:03:16.349Z,14.70
2023-01-19T13:08:28.137Z,11.82
2023-01-19T13:13:35.863Z,14.32
2023-01-19T13:18:40.947Z,16.25
2023-01-19T13:23:49.851Z,14.93
2023-01-19T13:28:57.309Z,14.90
2023-01-19T13:34:01.327Z,15.73
2023-01-19T13:39:18.357Z,14.18
2023-01-19T13:44:23.827Z,30.20
2023-01-19T13:49:40.314Z,14.25
2023-01-19T13:55:03.019Z,14.88
2023-01-19T14:00:05.456Z,17.35
2023-01-19T14:05:42.595Z,14.63
2023-01-19T14:11:02.053Z,19.25
2023-01-19T14:16:14.597Z,16.40
2023-01-19T14:21:16.606Z,17.08
2023-01-19T14:26:37.413Z,21.33
2023-01-19T14:31:49.503Z,14.15
2023-01-19T14:36:51.952Z,18.20
2023-01-19T14:41:57.207Z,18.27
2023-01-19T14:46:59.830Z,18.73
2023-01-19T14:52:25.440Z,17.35
2023-01-19T14:57:27.756Z,17.80
2023-01-19T15:02:29.660Z,16.17
2023-01-19T15:07:31.560Z,13.48
2023-01-19T15:12:33.319Z,16.35
2023-01-19T15:17:35.189Z,18.20
2023-01-19T15:22:36.949Z,17.23
2023-01-19T15:27:38.899Z,17.02
2023-01-19T15:32:43.789Z,16.70
2023-01-19T15:37:46.726Z,16.13
2023-01-19T15:42:48.992Z,14.68
2023-01-19T15:47:50.706Z,26.40
2023-01-19T15:52:52.425Z,21.90
2023-01-19T15:57:54.994Z,23.77
2023-01-19T16:02:57.712Z,27.58
2023-01-19T16:08:01.804Z,20.50
2023-01-19T16:13:04.413Z,21.50
2023-01-19T16:18:06.565Z,21.10
2023-01-19T16:23:15.974Z,19.10
2023-01-19T16:28:17.807Z,17.45
2023-01-19T16:33:19.585Z,18.15
2023-01-19T16:38:23.166Z,21.13
2023-01-19T16:43:26.345Z,25.35
2023-01-19T16:48:32.152Z,17.40
2023-01-19T16:53:35.333Z,19.02
2023-01-19T16:58:40.363Z,25.10
2023-01-19T17:03:42.799Z,21.25
2023-01-19T17:08:44.721Z,22.35
2023-01-19T17:13:47.964Z,21.33
2023-01-19T17:18:50.202Z,23.45
2023-01-19T17:23:54.564Z,26.73
2023-01-19T17:29:07.752Z,24.55
2023-01-19T17:34:09.850Z,25.23
2023-01-19T17:39:14.676Z,26.42
2023-01-19T17:44:16.583Z,26.70
2023-01-19T17:49:18.347Z,33.65
2023-01-19T17:54:20.110Z,32.92
2023-01-19T17:59:21.855Z,30.70
2023-01-19T18:04:23.597Z,34.08
2023-01-19T18:09:25.380Z,41.03
2023-01-19T18:14:27.084Z,33.28
2023-01-19T18:19:28.790Z,34.97
2023-01-19T18:24:30.707Z,35.53
2023-01-19T18:29:32.492Z,37.97
2023-01-19T18:34:34.430Z,42.78
2023-01-19T18:39:36.149Z,37.67
2023-01-19T18:44:37.867Z,40.10
2023-01-19T18:49:39.562Z,39.17
2023-01-19T18:54:41.339Z,36.92
2023-01-19T18:59:43.908Z,39.08
2023-01-19T19:04:45.613Z,37.92
2023-01-19T19:09:47.359Z,36.17
2023-01-19T19:14:49.055Z,37.53
2023-01-19T19:19:50.817Z,38.42
2023-01-19T19:24:52.509Z,37.72
2023-01-19T19:29:54.245Z,38.80
2023-01-19T19:34:58.043Z,41.80
2023-01-19T19:39:59.991Z,36.47
2023-01-19T19:45:02.081Z,41.80
2023-01-19T19:50:03.959Z,40.58
2023-01-19T19:55:08.348Z,36.60
2023-01-19T20:00:11.129Z,34.58
2023-01-19T20:05:13.136Z,34.97
2023-01-19T20:10:15.061Z,37.03
2023-01-19T20:15:16.847Z,37.92
2023-01-19T20:20:18.703Z,37.90
2023-01-19T20:25:20.606Z,30.42
2023-01-19T20:30:22.837Z,41.00
2023-01-19T20:35:24.612Z,31.10
2023-01-19T20:40:26.554Z,28.65
2023-01-19T20:45:28.332Z,28.90
2023-01-19T20:50:30.033Z,30.23
2023-01-19T20:55:31.780Z,23.95
2023-01-19T21:00:34.489Z,24.63
2023-01-19T21:05:36.596Z,30.33
2023-01-19T21:10:38.284Z,31.30
2023-01-19T21:15:39.998Z,26.50
2023-01-19T21:20:41.712Z,31.42
2023-01-19T21:25:55.048Z,28.98
2023-01-19T21:30:57.005Z,33.20
2023-01-19T21:35:58.811Z,30.33
2023-01-19T21:41:07.363Z,30.73
2023-01-19T21:46:20.729Z,26.63
2023-01-19T21:51:22.501Z,26.95
2023-01-19T21:56:24.214Z,28.60
2023-01-19T22:01:26.032Z,27.20
2023-01-19T22:06:28.480Z,26.60
2023-01-19T22:11:30.473Z,27.05
2023-01-19T22:16:32.344Z,28.65
2023-01-19T22:21:38.258Z,24.38
2023-01-19T22:26:40.200Z,25.63
2023-01-19T22:31:43.103Z,26.20
2023-01-19T22:36:44.922Z,29.27
2023-01-19T22:41:47.045Z,28.35
2023-01-19T22:46:50.195Z,27.83
2023-01-19T22:51:53.956Z,28.88
2023-01-19T22:56:55.626Z,25.83
2023-01-19T23:01:57.540Z,28.70
2023-01-19T23:06:59.382Z,21.85
2023-01-19T23:12:01.222Z,26.30
2023-01-19T23:17:02.987Z,27.80
2023-01-19T23:22:04.689Z,24.95
2023-01-19T23:27:06.439Z,22.75
2023-01-19T23:32:08.353Z,22.45
2023-01-19T23:37:10.102Z,20.73
2023-01-19T23:42:11.848Z,21.88
2023-01-19T23:47:13.532Z,28.42
2023-01-19T23:52:15.353Z,37.53
2023-01-19T23:57:17.086Z,26.20
